Schillplate — ZDJJ8 — position and weather

sailwx.info

Track history (hours):
 
Tides and Currents Weather Stations Pressure Air Temp Water Temp Dewpoint Dewpoint Depression Visibility Wind Speed Wind Dir Waves Ship Positions

Schillplate

Last reported at 2015-Sep-03 18:06 UTC. Time now 2015-Sep-03 19:12 UTC.
Position N 54°13' E 012°00'.

Length 86 m; draft 3.9 m.

Type: Cargo ship. MMSI: 236111603.

Date/timePositionNaut miles runAvg speedWind from/ knotsBaromVisibWave heightAir tempDewpointWater temp
2015-Sep-03 18:06N 54°13' E 012°00'0 0.0
2015-Sep-03 17:06N 54°13' E 012°00'0 0.0
2015-Sep-03 16:27N 54°13' E 012°00'0 0.0
2015-Sep-03 15:12N 54°13' E 012°00'0 0.0
2015-Sep-03 14:24N 54°13' E 012°00'0 0.0
2015-Sep-03 13:33N 54°13' E 012°00'0 0.0
2015-Sep-03 12:24N 54°13' E 012°00'0 0.0
2015-Sep-03 11:27N 54°13' E 012°00'0 0.0
2015-Sep-03 09:33N 54°13' E 012°00'0 0.0
2015-Sep-03 08:33N 54°13' E 012°00'0 0.0
2015-Sep-03 07:30N 54°13' E 012°00'0 0.0
2015-Sep-03 06:21N 54°13' E 012°00'0 0.0
2015-Sep-03 05:30N 54°13' E 012°00'0 0.0
2015-Sep-03 03:30N 54°13' E 012°00'0 0.0
2015-Sep-03 02:33N 54°13' E 012°00'0 0.0
2015-Sep-03 01:27N 54°13' E 012°00'0 0.0
2015-Sep-03 00:33N 54°13' E 012°00'2 2.0
2015-Sep-02 23:33N 54°15' E 012°01'1010.5
2015-Sep-02 22:34N 54°24' E 012°08'78 9.6
2015-Sep-02 14:28N 54°50' E 014°15'910.4
2015-Sep-02 13:33N 54°51' E 014°32'1010.3
2015-Sep-02 12:33N 54°53' E 014°49'1010.1
2015-Sep-02 11:34N 54°54' E 015°07'1010.1
2015-Sep-02 10:32N 54°55' E 015°25'76 9.6
2015-Sep-02 02:34N 54°56' E 017°37'1010.3
2015-Sep-02 01:33N 54°56' E 017°55'1010.0
2015-Sep-02 00:33N 54°57' E 018°12'1010.3
2015-Sep-01 23:33N 54°57' E 018°30'1110.8
2015-Sep-01 22:34N 54°51' E 018°46'1010.2
2015-Sep-01 21:34N 54°44' E 018°58'1110.7
2015-Sep-01 20:33N 54°34' E 018°51'10 9.8
2015-Sep-01 19:34N 54°32' E 018°34'2 1.6
2015-Sep-01 18:32N 54°32' E 018°32'0 0.0
2015-Sep-01 17:32N 54°32' E 018°32'0 0.0
2015-Sep-01 16:32N 54°32' E 018°32'0 0.0
2015-Sep-01 15:32N 54°32' E 018°32'0 0.0
2015-Sep-01 14:32N 54°32' E 018°32'0 0.0
2015-Sep-01 13:32N 54°32' E 018°32'0 0.0
2015-Sep-01 12:32N 54°32' E 018°32'0 0.0
2015-Sep-01 11:32N 54°32' E 018°32'0 0.0
2015-Sep-01 10:32N 54°32' E 018°32'0 0.0
2015-Sep-01 09:32N 54°32' E 018°32'0 0.0
2015-Sep-01 08:32N 54°32' E 018°32'0 0.0
2015-Sep-01 07:32N 54°32' E 018°32'0 0.0
2015-Sep-01 06:32N 54°32' E 018°32'0 0.0
2015-Sep-01 05:32N 54°32' E 018°32'0 0.0
2015-Sep-01 04:32N 54°32' E 018°32'0 0.0
2015-Sep-01 03:32N 54°32' E 018°32'0 0.0
2015-Sep-01 02:32N 54°32' E 018°32'4 4.1
2015-Sep-01 01:33N 54°32' E 018°38'9 8.8
2015-Sep-01 00:34N 54°35' E 018°52'10 9.7
2015-Aug-31 23:34N 54°44' E 018°59'1010.3
2015-Aug-31 22:33N 54°54' E 019°04'1110.7
2015-Aug-31 21:33N 55°05' E 019°09'1010.5
2015-Aug-31 20:34N 55°15' E 019°15'1110.5
2015-Aug-31 19:33N 55°25' E 019°20'1110.7
2015-Aug-31 18:33N 55°35' E 019°26'1110.7
2015-Aug-31 17:34N 55°45' E 019°32'3710.5
2015-Aug-31 14:05N 56°20' E 019°52'610.4
2015-Aug-31 13:32N 56°25' E 019°55'1210.4
2015-Aug-31 12:23N 56°37' E 020°01'910.4
2015-Aug-31 11:33N 56°45' E 020°06'203 9.6
2015-Aug-30 14:32N 59°39' E 023°25'9 9.4
2015-Aug-30 13:33N 59°41' E 023°42'9 9.1
2015-Aug-30 12:32N 59°44' E 023°59'80 9.5
2015-Aug-30 04:07N 60°02' E 026°35'5 9.7
2015-Aug-30 03:34N 60°01' E 026°46'3 0.1
2015-Aug-28 05:15N 59°59' E 026°50'810.7
2015-Aug-28 04:30N 59°59' E 026°34'8411.3
2015-Aug-27 21:04N 59°38' E 023°52'611.3
2015-Aug-27 20:33N 59°36' E 023°41'1111.3
2015-Aug-27 19:33N 59°32' E 023°20'2311.3
2015-Aug-27 17:29N 59°25' E 022°37'1010.2
2015-Aug-27 16:29N 59°25' E 022°17'1010.7
2015-Aug-27 15:34N 59°28' E 021°58'1110.8
2015-Aug-27 14:33N 59°31' E 021°38'1110.6
2015-Aug-27 13:34N 59°34' E 021°18'  
Track history (hours):
 
Tides and Currents Weather Stations Pressure Air Temp Water Temp Dewpoint Dewpoint Depression Visibility Wind Speed Wind Dir Waves Ship Positions

Schillplate

Last reported at 2015-Sep-03 18:06 UTC. Time now 2015-Sep-03 19:12 UTC.
Position N 54°13' E 012°00'.

Length 86 m; draft 3.9 m.

Type: Cargo ship. MMSI: 236111603.

Date/timePositionNaut miles runAvg speedWind from/ knotsBaromVisibWave heightAir tempDewpointWater temp
2015-Sep-03 18:06N 54°13' E 012°00'0 0.0
2015-Sep-03 17:06N 54°13' E 012°00'0 0.0
2015-Sep-03 16:27N 54°13' E 012°00'0 0.0
2015-Sep-03 15:12N 54°13' E 012°00'0 0.0
2015-Sep-03 14:24N 54°13' E 012°00'0 0.0
2015-Sep-03 13:33N 54°13' E 012°00'0 0.0
2015-Sep-03 12:24N 54°13' E 012°00'0 0.0
2015-Sep-03 11:27N 54°13' E 012°00'0 0.0
2015-Sep-03 09:33N 54°13' E 012°00'0 0.0
2015-Sep-03 08:33N 54°13' E 012°00'0 0.0
2015-Sep-03 07:30N 54°13' E 012°00'0 0.0
2015-Sep-03 06:21N 54°13' E 012°00'0 0.0
2015-Sep-03 05:30N 54°13' E 012°00'0 0.0
2015-Sep-03 03:30N 54°13' E 012°00'0 0.0
2015-Sep-03 02:33N 54°13' E 012°00'0 0.0
2015-Sep-03 01:27N 54°13' E 012°00'0 0.0
2015-Sep-03 00:33N 54°13' E 012°00'2 2.0
2015-Sep-02 23:33N 54°15' E 012°01'1010.5
2015-Sep-02 22:34N 54°24' E 012°08'78 9.6
2015-Sep-02 14:28N 54°50' E 014°15'910.4
2015-Sep-02 13:33N 54°51' E 014°32'1010.3
2015-Sep-02 12:33N 54°53' E 014°49'1010.1
2015-Sep-02 11:34N 54°54' E 015°07'1010.1
2015-Sep-02 10:32N 54°55' E 015°25'76 9.6
2015-Sep-02 02:34N 54°56' E 017°37'1010.3
2015-Sep-02 01:33N 54°56' E 017°55'1010.0
2015-Sep-02 00:33N 54°57' E 018°12'1010.3
2015-Sep-01 23:33N 54°57' E 018°30'1110.8
2015-Sep-01 22:34N 54°51' E 018°46'1010.2
2015-Sep-01 21:34N 54°44' E 018°58'1110.7
2015-Sep-01 20:33N 54°34' E 018°51'10 9.8
2015-Sep-01 19:34N 54°32' E 018°34'2 1.6
2015-Sep-01 18:32N 54°32' E 018°32'0 0.0
2015-Sep-01 17:32N 54°32' E 018°32'0 0.0
2015-Sep-01 16:32N 54°32' E 018°32'0 0.0
2015-Sep-01 15:32N 54°32' E 018°32'0 0.0
2015-Sep-01 14:32N 54°32' E 018°32'0 0.0
2015-Sep-01 13:32N 54°32' E 018°32'0 0.0
2015-Sep-01 12:32N 54°32' E 018°32'0 0.0
2015-Sep-01 11:32N 54°32' E 018°32'0 0.0
2015-Sep-01 10:32N 54°32' E 018°32'0 0.0
2015-Sep-01 09:32N 54°32' E 018°32'0 0.0
2015-Sep-01 08:32N 54°32' E 018°32'0 0.0
2015-Sep-01 07:32N 54°32' E 018°32'0 0.0
2015-Sep-01 06:32N 54°32' E 018°32'0 0.0
2015-Sep-01 05:32N 54°32' E 018°32'0 0.0
2015-Sep-01 04:32N 54°32' E 018°32'0 0.0
2015-Sep-01 03:32N 54°32' E 018°32'0 0.0
2015-Sep-01 02:32N 54°32' E 018°32'4 4.1
2015-Sep-01 01:33N 54°32' E 018°38'9 8.8
2015-Sep-01 00:34N 54°35' E 018°52'10 9.7
2015-Aug-31 23:34N 54°44' E 018°59'1010.3
2015-Aug-31 22:33N 54°54' E 019°04'1110.7
2015-Aug-31 21:33N 55°05' E 019°09'1010.5
2015-Aug-31 20:34N 55°15' E 019°15'1110.5
2015-Aug-31 19:33N 55°25' E 019°20'1110.7
2015-Aug-31 18:33N 55°35' E 019°26'1110.7
2015-Aug-31 17:34N 55°45' E 019°32'3710.5
2015-Aug-31 14:05N 56°20' E 019°52'610.4
2015-Aug-31 13:32N 56°25' E 019°55'1210.4
2015-Aug-31 12:23N 56°37' E 020°01'910.4
2015-Aug-31 11:33N 56°45' E 020°06'203 9.6
2015-Aug-30 14:32N 59°39' E 023°25'9 9.4
2015-Aug-30 13:33N 59°41' E 023°42'9 9.1
2015-Aug-30 12:32N 59°44' E 023°59'80 9.5
2015-Aug-30 04:07N 60°02' E 026°35'5 9.7
2015-Aug-30 03:34N 60°01' E 026°46'3 0.1
2015-Aug-28 05:15N 59°59' E 026°50'810.7
2015-Aug-28 04:30N 59°59' E 026°34'8411.3
2015-Aug-27 21:04N 59°38' E 023°52'611.3
2015-Aug-27 20:33N 59°36' E 023°41'1111.3
2015-Aug-27 19:33N 59°32' E 023°20'2311.3
2015-Aug-27 17:29N 59°25' E 022°37'1010.2
2015-Aug-27 16:29N 59°25' E 022°17'1010.7
2015-Aug-27 15:34N 59°28' E 021°58'1110.8
2015-Aug-27 14:33N 59°31' E 021°38'1110.6
2015-Aug-27 13:34N 59°34' E 021°18'  

Dump ship's entire track history